createdAt,value
2023-03-22T00:00:57.683Z,99.20
2023-03-22T00:05:02.061Z,99.10
2023-03-22T00:09:04.851Z,99.20
2023-03-22T00:13:09.050Z,99.20
2023-03-22T00:17:11.753Z,99.30
2023-03-22T00:21:24.018Z,99.20
2023-03-22T00:25:27.755Z,99.20
2023-03-22T00:29:30.646Z,99.20
2023-03-22T00:33:33.546Z,99.20
2023-03-22T00:37:38.596Z,99.20
2023-03-22T00:41:41.427Z,99.20
2023-03-22T00:45:44.341Z,99.10
2023-03-22T00:49:47.096Z,99.10
2023-03-22T00:53:52.188Z,99.10
2023-03-22T00:57:55.750Z,99.10
2023-03-22T01:01:59.005Z,99.10
2023-03-22T01:06:01.769Z,99.00
2023-03-22T01:10:08.151Z,99.10
2023-03-22T01:14:13.864Z,99.10
2023-03-22T01:18:16.761Z,99.20
2023-03-22T01:22:19.729Z,99.10
2023-03-22T01:26:23.877Z,99.10
2023-03-22T01:30:26.912Z,99.10
2023-03-22T01:34:29.743Z,99.00
2023-03-22T01:38:32.665Z,99.10
2023-03-22T01:42:38.613Z,99.10
2023-03-22T01:46:46.291Z,99.00
2023-03-22T01:51:03.716Z,99.10
2023-03-22T01:55:12.744Z,99.10
2023-03-22T01:59:23.705Z,99.20
2023-03-22T02:03:50.953Z,99.30
2023-03-22T02:07:54.391Z,99.30
2023-03-22T02:12:13.241Z,99.20
2023-03-22T02:16:31.744Z,99.20
2023-03-22T02:21:03.868Z,99.30
2023-03-22T02:25:34.604Z,99.20
2023-03-22T02:29:44.856Z,99.10
2023-03-22T02:34:27.658Z,99.00
2023-03-22T02:39:09.716Z,98.90
2023-03-22T02:43:23.465Z,99.00
2023-03-22T02:47:38.434Z,99.20
2023-03-22T02:51:51.799Z,99.10
2023-03-22T02:56:01.168Z,99.10
2023-03-22T03:00:10.426Z,99.00
2023-03-22T03:04:22.933Z,99.00
2023-03-22T03:08:30.233Z,99.00
2023-03-22T03:12:37.922Z,99.00
2023-03-22T03:16:42.507Z,98.80
2023-03-22T03:20:52.230Z,98.80
2023-03-22T03:25:02.466Z,98.70
2023-03-22T03:29:11.239Z,98.60
2023-03-22T03:33:18.155Z,98.60
2023-03-22T03:37:26.758Z,98.70
2023-03-22T03:41:32.642Z,98.70
2023-03-22T03:45:37.633Z,98.60
2023-03-22T03:49:42.052Z,98.60
2023-03-22T03:53:44.801Z,98.60
2023-03-22T03:57:47.603Z,98.70
2023-03-22T04:01:52.214Z,98.80
2023-03-22T04:06:02.033Z,98.80
2023-03-22T04:10:08.499Z,98.80
2023-03-22T04:14:11.337Z,98.80
2023-03-22T04:18:14.835Z,99.00
2023-03-22T04:22:19.866Z,99.10
2023-03-22T04:26:24.030Z,99.10
2023-03-22T04:30:41.279Z,99.10
2023-03-22T04:34:44.216Z,99.10
2023-03-22T04:38:51.552Z,99.10
2023-03-22T04:43:03.885Z,99.10
2023-03-22T04:47:19.765Z,99.10
2023-03-22T04:51:22.579Z,99.10
2023-03-22T04:55:50.298Z,99.00
2023-03-22T04:59:53.945Z,99.00
2023-03-22T05:03:56.707Z,99.10
2023-03-22T05:07:59.748Z,99.10
2023-03-22T05:12:04.805Z,99.20
2023-03-22T05:16:33.741Z,99.30
2023-03-22T05:20:37.641Z,99.40
2023-03-22T05:24:47.765Z,99.50
2023-03-22T05:28:57.776Z,99.60
2023-03-22T05:33:09.457Z,99.60
2023-03-22T05:37:21.174Z,99.60
2023-03-22T05:41:31.537Z,99.70
2023-03-22T05:45:37.610Z,99.80
2023-03-22T05:49:55.998Z,99.90
2023-03-22T05:54:00.854Z,99.80
2023-03-22T05:58:11.308Z,99.90
2023-03-22T06:02:17.385Z,99.90
2023-03-22T06:06:20.261Z,99.90
2023-03-22T06:10:32.035Z,99.90
2023-03-22T06:14:35.193Z,99.90
2023-03-22T06:18:53.572Z,99.90
2023-03-22T06:22:56.890Z,99.90
2023-03-22T06:27:00.371Z,99.80
2023-03-22T06:31:07.554Z,99.20
2023-03-22T06:35:20.979Z,99.30
2023-03-22T06:39:29.609Z,99.00
2023-03-22T06:43:34.259Z,98.80
2023-03-22T06:47:50.857Z,97.60
2023-03-22T06:52:15.034Z,96.80
2023-03-22T06:56:18.540Z,95.30
2023-03-22T07:00:25.976Z,95.20
2023-03-22T07:04:30.336Z,95.00
2023-03-22T07:08:37.396Z,94.80
2023-03-22T07:12:45.439Z,94.80
2023-03-22T07:16:53.234Z,94.60
2023-03-22T07:21:00.909Z,94.80
2023-03-22T07:25:06.622Z,94.90
2023-03-22T07:29:10.251Z,95.20
2023-03-22T07:33:14.302Z,95.20
2023-03-22T07:37:18.673Z,95.10
2023-03-22T07:41:24.180Z,95.20
2023-03-22T07:45:46.132Z,94.90
2023-03-22T07:50:09.363Z,94.90
2023-03-22T07:54:17.738Z,94.60
2023-03-22T07:58:26.952Z,94.00
2023-03-22T08:02:29.920Z,93.70
2023-03-22T08:06:37.343Z,93.60
2023-03-22T08:10:43.656Z,93.40
2023-03-22T08:14:50.879Z,93.30
2023-03-22T08:18:57.840Z,93.10
2023-03-22T08:23:02.920Z,93.60
2023-03-22T08:27:24.591Z,93.00
2023-03-22T08:31:28.729Z,93.10
2023-03-22T08:35:31.603Z,93.00
2023-03-22T08:39:38.064Z,92.40
2023-03-22T08:44:11.277Z,92.30
2023-03-22T08:48:15.698Z,92.00
2023-03-22T08:52:42.015Z,91.20
2023-03-22T08:56:52.501Z,90.70
2023-03-22T09:06:17.786Z,90.10
2023-03-22T09:10:22.050Z,90.00
2023-03-22T09:14:25.596Z,88.00
2023-03-22T09:18:29.709Z,85.20
2023-03-22T09:22:40.348Z,83.70
2023-03-22T09:26:48.150Z,83.70
2023-03-22T09:30:58.305Z,83.90
2023-03-22T09:35:03.524Z,83.60
2023-03-22T09:39:18.690Z,83.60
2023-03-22T09:43:32.139Z,79.60
2023-03-22T09:47:44.795Z,79.50
2023-03-22T09:51:51.235Z,79.80
2023-03-22T09:56:03.627Z,78.20
2023-03-22T10:00:20.888Z,76.10
2023-03-22T10:04:42.021Z,78.40
2023-03-22T10:08:54.313Z,76.60
2023-03-22T10:13:08.474Z,75.60
2023-03-22T10:17:16.110Z,75.20
2023-03-22T10:21:20.671Z,74.00
2023-03-22T10:25:35.442Z,73.30
2023-03-22T10:29:46.724Z,72.90
2023-03-22T10:33:58.493Z,72.70
2023-03-22T10:38:05.211Z,72.60
2023-03-22T10:42:14.402Z,73.60
2023-03-22T10:46:21.980Z,71.20
2023-03-22T10:50:32.656Z,71.80
2023-03-22T10:54:38.224Z,70.10
2023-03-22T10:58:43.569Z,71.20
2023-03-22T11:02:53.634Z,70.80
2023-03-22T11:06:57.908Z,70.10
2023-03-22T11:11:02.589Z,70.20
2023-03-22T11:15:07.204Z,69.10
2023-03-22T11:19:27.142Z,68.60
2023-03-22T11:23:36.607Z,68.80
2023-03-22T11:27:51.756Z,69.30
2023-03-22T11:31:58.648Z,68.40
2023-03-22T11:36:06.313Z,70.40
2023-03-22T11:40:16.753Z,69.30
2023-03-22T11:44:24.518Z,69.10
2023-03-22T11:48:31.654Z,69.10
2023-03-22T11:52:40.264Z,69.60
2023-03-22T11:56:47.314Z,69.20
2023-03-22T12:00:53.117Z,69.20
2023-03-22T12:05:01.793Z,69.20
2023-03-22T12:09:12.064Z,68.50
2023-03-22T12:13:20.345Z,69.50
2023-03-22T12:17:31.822Z,70.30
2023-03-22T12:21:35.645Z,69.80
2023-03-22T12:25:43.516Z,69.60
2023-03-22T12:29:52.129Z,70.60
2023-03-22T12:33:57.108Z,71.00
2023-03-22T12:38:03.005Z,69.70
2023-03-22T12:42:17.051Z,69.10
2023-03-22T12:46:23.815Z,68.90
2023-03-22T12:50:32.308Z,68.10
2023-03-22T12:54:35.493Z,68.60
2023-03-22T12:58:39.785Z,68.50
2023-03-22T13:02:51.051Z,67.10
2023-03-22T13:06:58.795Z,66.80
2023-03-22T13:11:04.910Z,66.60
2023-03-22T13:15:41.257Z,65.70
2023-03-22T13:19:53.503Z,65.80
2023-03-22T13:24:00.603Z,66.00
2023-03-22T13:28:20.900Z,66.20
2023-03-22T13:32:30.582Z,66.30
2023-03-22T13:36:33.483Z,67.30
2023-03-22T13:40:40.472Z,67.90
2023-03-22T13:44:45.998Z,66.80
2023-03-22T13:49:10.165Z,67.50
2023-03-22T13:53:21.312Z,69.30
2023-03-22T13:57:46.684Z,69.20
2023-03-22T14:01:53.044Z,70.10
2023-03-22T14:06:06.303Z,71.00
2023-03-22T14:10:17.189Z,71.50
2023-03-22T14:14:23.677Z,74.00
2023-03-22T14:18:29.359Z,74.10
